createdAt,value
2023-03-17T00:02:20.553Z,100716.56
2023-03-17T00:04:52.495Z,100719.47
2023-03-17T00:07:22.656Z,100702.78
2023-03-17T00:09:54.271Z,100726.38
2023-03-17T00:12:23.400Z,100713.44
2023-03-17T00:14:52.650Z,100722.13
2023-03-17T00:17:22.038Z,100738.16
2023-03-17T00:19:52.688Z,100749.47
2023-03-17T00:22:22.539Z,100747.88
2023-03-17T00:24:51.953Z,100734.81
2023-03-17T00:27:20.882Z,100709.28
2023-03-17T00:29:50.350Z,100738.88
2023-03-17T00:32:23.136Z,100725.31
2023-03-17T00:34:55.162Z,100742.00
2023-03-17T00:37:25.269Z,100690.09
2023-03-17T00:39:54.696Z,100690.53
2023-03-17T00:42:23.901Z,100753.78
2023-03-17T00:44:56.378Z,100719.66
2023-03-17T00:47:25.532Z,100726.81
2023-03-17T00:49:55.962Z,100734.34
2023-03-17T00:52:27.045Z,100735.28
2023-03-17T00:55:05.685Z,100703.94
2023-03-17T00:57:35.379Z,100735.25
2023-03-17T01:00:06.282Z,100711.84
2023-03-17T01:02:35.670Z,100737.06
2023-03-17T01:05:07.235Z,100734.06
2023-03-17T01:07:37.260Z,100741.00
2023-03-17T01:10:15.849Z,100740.59
2023-03-17T01:12:45.638Z,100733.91
2023-03-17T01:15:17.378Z,100709.38
2023-03-17T01:17:46.614Z,100753.78
2023-03-17T01:20:21.778Z,100722.72
2023-03-17T01:22:52.463Z,100727.38
2023-03-17T01:25:22.302Z,100736.97
2023-03-17T01:27:51.661Z,100727.53
2023-03-17T01:30:27.557Z,100756.59
2023-03-17T01:32:58.279Z,100761.59
2023-03-17T01:35:31.609Z,100778.41
2023-03-17T01:38:01.198Z,100765.50
2023-03-17T01:40:33.444Z,100756.25
2023-03-17T01:43:17.558Z,100718.19
2023-03-17T01:46:05.328Z,100766.84
2023-03-17T01:48:40.207Z,100769.28
2023-03-17T01:51:15.239Z,100750.34
2023-03-17T01:53:47.619Z,100788.38
2023-03-17T01:56:18.257Z,100760.97
2023-03-17T01:58:50.759Z,100759.41
2023-03-17T02:01:21.668Z,100747.09
2023-03-17T02:03:50.960Z,100775.38
2023-03-17T02:06:23.310Z,100733.88
2023-03-17T02:08:53.743Z,100767.50
2023-03-17T02:11:24.063Z,100779.47
2023-03-17T02:13:53.448Z,100780.25
2023-03-17T02:16:24.253Z,100787.31
2023-03-17T02:18:54.264Z,100739.50
2023-03-17T02:21:40.995Z,100785.00
2023-03-17T02:24:18.558Z,100793.94
2023-03-17T02:26:49.702Z,100803.84
2023-03-17T02:29:20.314Z,100783.47
2023-03-17T02:31:49.889Z,100795.19
2023-03-17T02:34:19.295Z,100783.78
2023-03-17T02:36:51.993Z,100799.66
2023-03-17T02:39:21.597Z,100789.13
2023-03-17T02:41:50.636Z,100792.75
2023-03-17T02:44:20.419Z,100765.66
2023-03-17T02:46:53.746Z,100760.00
2023-03-17T02:49:23.626Z,100778.59
2023-03-17T02:51:57.124Z,100803.31
2023-03-17T02:54:26.605Z,100798.50
2023-03-17T02:56:55.818Z,100817.41
2023-03-17T02:59:24.748Z,100816.88
2023-03-17T03:01:54.975Z,100802.41
2023-03-17T03:04:26.344Z,100812.47
2023-03-17T03:06:57.780Z,100777.56
2023-03-17T03:09:27.429Z,100826.44
2023-03-17T03:11:56.947Z,100838.22
2023-03-17T03:14:27.924Z,100810.19
2023-03-17T03:16:58.728Z,100828.50
2023-03-17T03:19:28.429Z,100829.38
2023-03-17T03:21:59.271Z,100837.09
2023-03-17T03:24:29.214Z,100803.59
2023-03-17T03:26:58.605Z,100832.41
2023-03-17T03:29:28.612Z,100840.41
2023-03-17T03:31:58.025Z,100829.09
2023-03-17T03:34:27.960Z,100809.69
2023-03-17T03:36:58.436Z,100847.97
2023-03-17T03:39:27.491Z,100845.88
2023-03-17T03:41:58.474Z,100838.13
2023-03-17T03:44:28.445Z,100851.81
2023-03-17T03:46:58.084Z,100860.81
2023-03-17T03:49:27.622Z,100838.94
2023-03-17T03:51:58.241Z,100801.13
2023-03-17T03:54:27.583Z,100836.50
2023-03-17T03:56:57.397Z,100860.34
2023-03-17T03:59:26.741Z,100845.84
2023-03-17T04:01:56.426Z,100853.00
2023-03-17T04:04:27.746Z,100864.25
2023-03-17T04:06:59.983Z,100870.91
2023-03-17T04:09:28.984Z,100868.72
2023-03-17T04:11:58.111Z,100874.38
2023-03-17T04:14:28.984Z,100874.66
2023-03-17T04:16:58.056Z,100881.88
2023-03-17T04:19:27.634Z,100879.94
2023-03-17T04:21:58.237Z,100880.53
2023-03-17T04:24:27.907Z,100819.53
2023-03-17T04:27:00.539Z,100890.03
2023-03-17T04:29:30.345Z,100893.63
2023-03-17T04:32:01.599Z,100882.22
2023-03-17T04:34:30.855Z,100892.28
2023-03-17T04:37:01.589Z,100891.53
2023-03-17T04:39:31.210Z,100898.50
2023-03-17T04:42:00.528Z,100908.75
2023-03-17T04:44:30.149Z,100902.00
2023-03-17T04:47:04.819Z,100871.69
2023-03-17T04:49:36.064Z,100905.09
2023-03-17T04:52:10.501Z,100874.50
2023-03-17T04:54:39.595Z,100915.31
2023-03-17T04:57:09.087Z,100920.84
2023-03-17T04:59:39.967Z,100922.09
2023-03-17T05:02:09.487Z,100925.94
2023-03-17T05:04:38.987Z,100941.03
2023-03-17T05:07:10.195Z,100921.88
2023-03-17T05:09:39.368Z,100937.66
2023-03-17T05:12:12.417Z,100938.59
2023-03-17T05:14:41.966Z,100936.88
2023-03-17T05:17:11.595Z,100931.91
2023-03-17T05:19:40.884Z,100937.13
2023-03-17T05:22:11.606Z,100936.31
2023-03-17T05:24:40.935Z,100922.44
2023-03-17T05:27:10.340Z,100918.84
2023-03-17T05:29:56.924Z,100952.25
2023-03-17T05:32:26.294Z,100959.63
2023-03-17T05:34:55.319Z,100941.25
2023-03-17T05:37:25.991Z,100955.13
2023-03-17T05:39:55.156Z,100961.06
2023-03-17T05:42:24.579Z,100952.94
2023-03-17T05:44:53.685Z,100963.38
2023-03-17T05:47:23.212Z,100946.69
2023-03-17T05:49:52.785Z,100935.09
2023-03-17T05:52:22.230Z,100964.25
2023-03-17T05:54:53.616Z,100970.69
2023-03-17T05:57:23.138Z,100971.63
2023-03-17T05:59:52.329Z,100979.53
2023-03-17T06:02:23.908Z,100963.84
2023-03-17T06:04:53.206Z,100974.16
2023-03-17T06:07:25.345Z,100967.38
2023-03-17T06:09:55.908Z,100962.66
2023-03-17T06:12:25.896Z,100981.75
2023-03-17T06:14:55.062Z,100979.59
2023-03-17T06:17:24.328Z,100986.56
2023-03-17T06:19:53.279Z,100988.47
2023-03-17T06:22:22.356Z,100993.72
2023-03-17T06:24:52.710Z,100947.84
2023-03-17T06:27:23.240Z,100992.66
2023-03-17T06:29:52.426Z,101000.94
2023-03-17T06:32:21.500Z,100984.41
2023-03-17T06:34:51.363Z,100948.56
2023-03-17T06:37:23.280Z,101016.13
2023-03-17T06:39:52.981Z,101011.00
2023-03-17T06:42:24.120Z,100998.81
2023-03-17T06:44:53.724Z,101007.22
2023-03-17T06:47:25.894Z,100943.25
2023-03-17T06:49:56.986Z,100976.50
2023-03-17T06:52:29.151Z,101012.16
2023-03-17T06:54:58.378Z,100990.63
2023-03-17T06:57:31.925Z,101019.75
2023-03-17T07:00:01.122Z,101015.34
2023-03-17T07:02:29.992Z,101015.59
2023-03-17T07:04:59.324Z,101007.34
2023-03-17T07:07:29.437Z,101000.69
2023-03-17T07:09:58.846Z,100985.81
2023-03-17T07:12:30.235Z,101016.72
2023-03-17T07:15:03.831Z,100998.97
2023-03-17T07:17:33.096Z,101021.38
2023-03-17T07:20:02.284Z,101027.47
2023-03-17T07:22:31.225Z,101024.75
2023-03-17T07:25:00.692Z,101007.00
2023-03-17T07:27:31.522Z,101006.81
2023-03-17T07:30:04.549Z,101025.72
2023-03-17T07:32:33.942Z,100992.25
2023-03-17T07:35:06.240Z,101012.09
2023-03-17T07:37:38.135Z,101048.16
2023-03-17T07:40:09.246Z,101035.94
2023-03-17T07:42:40.295Z,101029.16
2023-03-17T07:45:10.403Z,101041.63
2023-03-17T07:47:39.584Z,101041.66
2023-03-17T07:50:09.839Z,101036.94
2023-03-17T07:52:39.564Z,101045.47
2023-03-17T07:55:10.690Z,101030.09
2023-03-17T07:57:41.596Z,101021.16
2023-03-17T08:00:13.808Z,101042.69
2023-03-17T08:02:46.901Z,101007.97
2023-03-17T08:05:19.777Z,101020.63
2023-03-17T08:07:49.316Z,101053.47
2023-03-17T08:10:18.314Z,101054.63
2023-03-17T08:12:51.976Z,101022.28
2023-03-17T08:15:22.156Z,101056.88
2023-03-17T08:17:51.743Z,101042.34
2023-03-17T08:20:21.956Z,101053.38
2023-03-17T08:22:51.597Z,100982.00
2023-03-17T08:25:22.084Z,101043.63
2023-03-17T08:27:57.125Z,101014.53
2023-03-17T08:30:31.550Z,100977.53
2023-03-17T08:33:02.910Z,101060.94
2023-03-17T08:35:32.791Z,101076.06
2023-03-17T08:38:03.156Z,101069.13
2023-03-17T08:40:32.554Z,101073.47
2023-03-17T08:43:03.592Z,101074.50
2023-03-17T08:45:36.677Z,101050.69
2023-03-17T08:48:11.035Z,101077.59
2023-03-17T08:50:42.290Z,101074.19
2023-03-17T08:53:12.030Z,101088.13
2023-03-17T08:55:41.252Z,101091.06
2023-03-17T08:58:11.788Z,101084.22
2023-03-17T09:00:41.009Z,101056.56
2023-03-17T09:03:10.331Z,101074.13
2023-03-17T09:05:39.411Z,101093.88
2023-03-17T09:08:08.837Z,101092.81
2023-03-17T09:10:42.511Z,101092.09
2023-03-17T09:13:14.631Z,101079.16
2023-03-17T09:15:47.136Z,101095.09
2023-03-17T09:18:22.105Z,101087.78
2023-03-17T09:20:51.414Z,101096.00
2023-03-17T09:23:23.946Z,101096.72
2023-03-17T09:25:53.610Z,101087.22
2023-03-17T09:28:24.764Z,101102.69
2023-03-17T09:30:58.609Z,101108.09
2023-03-17T09:33:30.997Z,101107.91
2023-03-17T09:36:00.166Z,101088.34
2023-03-17T09:38:30.089Z,101106.66
2023-03-17T09:41:08.385Z,101114.28
2023-03-17T09:43:47.380Z,101116.47
2023-03-17T09:46:30.733Z,101118.09
2023-03-17T09:49:04.580Z,101112.66
2023-03-17T09:51:35.638Z,101099.53
2023-03-17T09:54:08.010Z,101097.88
2023-03-17T09:56:39.908Z,101089.28
2023-03-17T09:59:31.011Z,101099.50
2023-03-17T10:02:00.344Z,101094.31
2023-03-17T10:04:29.392Z,101110.03
2023-03-17T10:07:04.251Z,101122.88
2023-03-17T10:09:37.174Z,101127.75
2023-03-17T10:12:11.580Z,101108.91
2023-03-17T10:14:55.287Z,101062.31
2023-03-17T10:17:27.282Z,101107.56
2023-03-17T10:20:02.038Z,101079.63
2023-03-17T10:22:36.230Z,101128.50
2023-03-17T10:25:14.071Z,101081.31
2023-03-17T10:27:46.375Z,101126.31
2023-03-17T10:30:19.578Z,101105.44
2023-03-17T10:32:49.536Z,101127.84
2023-03-17T10:35:19.953Z,101123.78
2023-03-17T10:37:49.869Z,101111.28
2023-03-17T10:40:24.574Z,101126.19
2023-03-17T10:42:58.172Z,101122.19
2023-03-17T10:45:31.533Z,101137.75
2023-03-17T10:48:04.401Z,101137.31
2023-03-17T10:50:35.591Z,101138.09
2023-03-17T10:53:08.837Z,101114.22
2023-03-17T10:55:44.897Z,101143.31
2023-03-17T10:58:18.206Z,101135.97
2023-03-17T11:00:58.683Z,101123.78
2023-03-17T11:03:31.364Z,101153.91
2023-03-17T11:06:05.997Z,101128.66
2023-03-17T11:08:40.379Z,101146.41
2023-03-17T11:11:22.557Z,101142.72
2023-03-17T11:13:51.962Z,101115.19
2023-03-17T11:16:40.622Z,101113.22
2023-03-17T11:19:16.840Z,101145.25
2023-03-17T11:21:57.352Z,101152.56
2023-03-17T11:24:33.463Z,101125.50
2023-03-17T11:27:09.013Z,101149.31
2023-03-17T11:29:57.470Z,101154.13
2023-03-17T11:32:33.841Z,101149.38
2023-03-17T11:35:15.729Z,101132.22
2023-03-17T11:38:01.376Z,101148.75
2023-03-17T11:40:35.827Z,101155.13
2023-03-17T11:43:23.807Z,101146.09
2023-03-17T11:45:59.082Z,101173.22
2023-03-17T11:48:42.498Z,101154.59
2023-03-17T11:51:20.431Z,101145.84
2023-03-17T11:54:04.433Z,101156.34
2023-03-17T11:56:40.680Z,101164.91
2023-03-17T11:59:19.845Z,101146.28
2023-03-17T12:01:56.077Z,101162.28
2023-03-17T12:04:34.562Z,101145.84
2023-03-17T12:07:17.295Z,101175.00
2023-03-17T12:10:02.713Z,101151.91
2023-03-17T12:12:39.320Z,101172.69
2023-03-17T12:15:21.504Z,101186.13
2023-03-17T12:17:55.931Z,101177.38
2023-03-17T12:20:33.899Z,101175.78
2023-03-17T12:23:13.757Z,101182.03
2023-03-17T12:25:52.967Z,101069.72
2023-03-17T12:28:29.038Z,101152.72
2023-03-17T12:33:57.263Z,101058.50
2023-03-17T12:36:30.283Z,101153.88
2023-03-17T12:39:05.532Z,101183.72
2023-03-17T12:42:02.178Z,101195.28
2023-03-17T12:44:56.414Z,101171.59
2023-03-17T12:47:45.337Z,101187.38
2023-03-17T12:50:51.815Z,101141.97
2023-03-17T12:53:29.879Z,101202.31
2023-03-17T12:56:02.799Z,101181.56
2023-03-17T12:58:37.211Z,101190.16
2023-03-17T13:01:17.582Z,101200.72
2023-03-17T13:04:06.172Z,101121.13
2023-03-17T13:06:42.652Z,101184.63
2023-03-17T13:09:40.089Z,101196.81
2023-03-17T13:12:52.701Z,101205.53
2023-03-17T13:15:51.198Z,101141.88
2023-03-17T13:18:48.349Z,101219.31
2023-03-17T13:21:20.627Z,101202.94
2023-03-17T13:23:58.361Z,101160.97
2023-03-17T13:26:58.107Z,101220.75
2023-03-17T13:29:48.323Z,101205.84
2023-03-17T13:32:42.046Z,101215.84
2023-03-17T13:35:38.715Z,101201.56
2023-03-17T13:38:26.760Z,101133.75
2023-03-17T13:44:40.378Z,101197.19
2023-03-17T13:47:24.457Z,101223.25
2023-03-17T13:49:59.021Z,101119.13
2023-03-17T13:52:32.036Z,101233.97
2023-03-17T13:55:07.108Z,101142.97
2023-03-17T13:57:40.836Z,101210.47
2023-03-17T14:00:24.545Z,101226.78
2023-03-17T14:03:03.429Z,101193.25
2023-03-17T14:05:38.080Z,101236.38
2023-03-17T14:08:16.990Z,101226.34
2023-03-17T14:10:54.993Z,101185.56
2023-03-17T14:13:29.292Z,101236.38
2023-03-17T14:16:04.024Z,101226.78
2023-03-17T14:18:35.895Z,101213.69
2023-03-17T14:21:11.729Z,101245.59
2023-03-17T14:23:41.317Z,101229.97
2023-03-17T14:26:14.374Z,101249.75
2023-03-17T14:28:47.500Z,101232.06
2023-03-17T14:31:24.580Z,101229.06
2023-03-17T14:34:16.161Z,101257.34
2023-03-17T14:36:46.636Z,101252.72
2023-03-17T14:39:24.125Z,101246.50
2023-03-17T14:42:04.077Z,101236.06
2023-03-17T14:44:45.600Z,101255.38
2023-03-17T14:47:21.113Z,101258.25
2023-03-17T14:49:52.724Z,101244.09
2023-03-17T14:52:29.020Z,101264.19
2023-03-17T14:55:00.745Z,101255.41
2023-03-17T14:57:34.635Z,101262.16
2023-03-17T15:00:05.456Z,101257.19
2023-03-17T15:02:37.991Z,101261.47
2023-03-17T15:05:26.567Z,101262.72
2023-03-17T15:07:57.356Z,101261.44
2023-03-17T15:10:31.394Z,101270.59
2023-03-17T15:13:03.009Z,101261.84
2023-03-17T15:15:35.065Z,101273.16
2023-03-17T15:18:08.787Z,101260.22
2023-03-17T15:20:38.169Z,101261.00
2023-03-17T15:23:18.595Z,101259.50
2023-03-17T15:25:50.554Z,101269.16
2023-03-17T15:28:21.932Z,101240.78
2023-03-17T15:30:53.631Z,101272.84
2023-03-17T15:33:32.078Z,101265.00
2023-03-17T15:36:01.790Z,101263.81
2023-03-17T15:38:33.360Z,101271.72
2023-03-17T15:41:02.831Z,101283.75
2023-03-17T15:43:32.075Z,101268.00
2023-03-17T15:46:04.341Z,101282.53
2023-03-17T15:48:37.530Z,101265.81
2023-03-17T15:51:07.240Z,101290.63
2023-03-17T15:53:37.967Z,101294.41
2023-03-17T15:56:12.782Z,101294.94
2023-03-17T15:58:42.218Z,101297.59
2023-03-17T16:01:13.597Z,101298.91
2023-03-17T16:03:47.280Z,101302.34
2023-03-17T16:06:17.909Z,101305.69
2023-03-17T16:09:14.679Z,101316.81
2023-03-17T16:11:44.144Z,101309.34
2023-03-17T16:14:14.083Z,101314.09
2023-03-17T16:17:08.283Z,101154.16
2023-03-17T16:19:37.536Z,101316.38
2023-03-17T16:22:25.169Z,101310.28
2023-03-17T16:25:06.360Z,101323.53
2023-03-17T16:27:40.370Z,101138.16
2023-03-17T16:30:26.134Z,101328.50
2023-03-17T16:32:57.716Z,101287.41
2023-03-17T16:35:31.320Z,101301.31
2023-03-17T16:38:03.804Z,101276.84
2023-03-17T16:41:01.968Z,101205.41
2023-03-17T16:43:35.741Z,101327.75
2023-03-17T16:46:07.032Z,101309.81
2023-03-17T16:48:37.060Z,101296.63
2023-03-17T16:51:15.993Z,101336.09
2023-03-17T16:53:55.950Z,101343.38
2023-03-17T16:56:29.129Z,101345.78
2023-03-17T16:59:01.239Z,101342.09
2023-03-17T17:01:48.310Z,101344.06
2023-03-17T17:04:17.597Z,101339.19
2023-03-17T17:06:54.713Z,101351.03
2023-03-17T17:09:24.365Z,101355.09
2023-03-17T17:11:55.258Z,101326.38
2023-03-17T17:14:29.244Z,101351.97
2023-03-17T17:16:59.063Z,101344.47
2023-03-17T17:19:29.011Z,101358.38
2023-03-17T17:21:59.051Z,101358.78
2023-03-17T17:24:28.706Z,101355.16
2023-03-17T17:27:00.009Z,101362.66
2023-03-17T17:29:32.228Z,101267.56
2023-03-17T17:32:02.648Z,101364.81
2023-03-17T17:34:32.410Z,101329.31
2023-03-17T17:37:02.717Z,101336.81
2023-03-17T17:39:33.092Z,101332.19
2023-03-17T17:42:04.385Z,101267.34
2023-03-17T17:44:34.114Z,101238.25
2023-03-17T17:47:06.263Z,101247.84
2023-03-17T17:49:35.813Z,101363.56
2023-03-17T17:52:05.455Z,101367.72
2023-03-17T17:54:36.285Z,101364.00
2023-03-17T17:57:08.674Z,101351.28
2023-03-17T17:59:38.889Z,101375.88
2023-03-17T18:02:10.875Z,101355.06
2023-03-17T18:04:40.396Z,101379.22
2023-03-17T18:07:10.481Z,101340.03
2023-03-17T18:09:40.316Z,101377.13
2023-03-17T18:12:11.430Z,101346.38
2023-03-17T18:14:41.180Z,101380.81
2023-03-17T18:17:10.830Z,101388.19
2023-03-17T18:19:42.329Z,101380.59
2023-03-17T18:22:14.770Z,101337.25
2023-03-17T18:24:44.227Z,101382.53
2023-03-17T18:27:15.908Z,101365.97
2023-03-17T18:29:48.766Z,101383.03
2023-03-17T18:32:27.294Z,101325.47
2023-03-17T18:35:02.715Z,101384.00
2023-03-17T18:37:34.695Z,101385.06
2023-03-17T18:40:14.448Z,101325.03
2023-03-17T18:42:48.830Z,101372.81
2023-03-17T18:45:32.906Z,101245.97
2023-03-17T18:48:02.583Z,101394.53
2023-03-17T18:50:34.007Z,101391.72
2023-03-17T18:53:12.526Z,101269.22
2023-03-17T18:55:42.853Z,101392.63
2023-03-17T18:58:14.394Z,101392.81
2023-03-17T19:00:44.084Z,101369.41
2023-03-17T19:03:17.040Z,101306.47
2023-03-17T19:05:46.988Z,101344.72
2023-03-17T19:08:20.486Z,101397.66
2023-03-17T19:10:50.627Z,101395.50
2023-03-17T19:13:27.465Z,101198.31
2023-03-17T19:15:58.439Z,101385.41
2023-03-17T19:18:29.438Z,101397.81
2023-03-17T19:21:16.809Z,101159.66
2023-03-17T19:23:47.425Z,101410.91
2023-03-17T19:26:18.114Z,101281.78
2023-03-17T19:28:51.850Z,101325.34
2023-03-17T19:31:25.895Z,101367.66
2023-03-17T19:34:02.753Z,101269.84
2023-03-17T19:36:37.134Z,101406.09
2023-03-17T19:39:09.670Z,101403.69
2023-03-17T19:41:39.348Z,101395.13
2023-03-17T19:44:13.541Z,101373.19
2023-03-17T19:46:50.840Z,101387.13
2023-03-17T19:49:22.488Z,101249.16
2023-03-17T19:51:54.589Z,101237.38
2023-03-17T19:54:32.120Z,101232.47
2023-03-17T19:57:05.449Z,101389.47
2023-03-17T19:59:38.526Z,101297.44
2023-03-17T20:02:08.165Z,101367.28
2023-03-17T20:04:40.222Z,101390.22
2023-03-17T20:07:10.951Z,101347.75
2023-03-17T20:09:46.630Z,101396.00
2023-03-17T20:12:16.593Z,101399.81
2023-03-17T20:14:50.738Z,101395.28
2023-03-17T20:17:26.310Z,101401.13
2023-03-17T20:20:00.106Z,101303.91
2023-03-17T20:22:29.369Z,101396.03
2023-03-17T20:24:59.249Z,101371.00
2023-03-17T20:27:34.097Z,101270.28
2023-03-17T20:30:08.133Z,101327.69
2023-03-17T20:32:45.177Z,101391.78
2023-03-17T20:35:19.068Z,101395.66
2023-03-17T20:37:51.109Z,101393.72
2023-03-17T20:40:22.135Z,101390.78
2023-03-17T20:42:52.438Z,101387.25
2023-03-17T20:45:26.741Z,101361.41
2023-03-17T20:47:56.282Z,101334.09
2023-03-17T20:50:25.956Z,101274.03
2023-03-17T20:53:00.479Z,101389.53
2023-03-17T20:55:33.191Z,101369.09
2023-03-17T20:58:04.031Z,101382.63
2023-03-17T21:00:38.881Z,101385.53
2023-03-17T21:03:09.941Z,101388.06
2023-03-17T21:05:51.202Z,101264.00
2023-03-17T21:08:21.230Z,101396.09
2023-03-17T21:10:52.955Z,101360.09
2023-03-17T21:13:33.389Z,101261.94
2023-03-17T21:16:20.921Z,101309.19
2023-03-17T21:18:53.184Z,101268.59
2023-03-17T21:21:22.914Z,101407.34
2023-03-17T21:23:55.102Z,101405.34
2023-03-17T21:26:27.227Z,101401.78
2023-03-17T21:28:57.698Z,101332.63
2023-03-17T21:31:28.631Z,101368.94
2023-03-17T21:34:03.370Z,101245.19
2023-03-17T21:36:33.952Z,101406.81
2023-03-17T21:39:03.091Z,101393.06
2023-03-17T21:41:36.064Z,101328.63
2023-03-17T21:44:15.076Z,101360.81
2023-03-17T21:46:47.946Z,101356.47
2023-03-17T21:49:19.845Z,101410.16
2023-03-17T21:51:55.312Z,101357.53
2023-03-17T21:54:24.485Z,101351.03
2023-03-17T21:56:56.689Z,101400.50
2023-03-17T21:59:26.205Z,101319.84
2023-03-17T22:01:56.655Z,101403.97
2023-03-17T22:04:26.593Z,101382.81
2023-03-17T22:06:57.884Z,101397.22
2023-03-17T22:09:27.175Z,101405.50
2023-03-17T22:11:56.529Z,101412.53
2023-03-17T22:14:25.758Z,101395.72
2023-03-17T22:16:58.802Z,101346.75
2023-03-17T22:19:29.879Z,101411.28
2023-03-17T22:21:59.453Z,101408.56
2023-03-17T22:24:29.638Z,101367.41
2023-03-17T22:26:59.524Z,101358.78
2023-03-17T22:29:39.398Z,101415.19
2023-03-17T22:32:10.841Z,101409.34
2023-03-17T22:34:40.561Z,101378.41
2023-03-17T22:37:10.057Z,101423.84
2023-03-17T22:39:39.444Z,101412.75
2023-03-17T22:42:08.975Z,101408.81
2023-03-17T22:45:48.643Z,101427.28
2023-03-17T22:48:40.319Z,101389.69
2023-03-17T22:51:11.671Z,101410.50
2023-03-17T22:53:41.655Z,101403.69
2023-03-17T22:56:12.252Z,101423.25
2023-03-17T22:58:42.430Z,101423.75
2023-03-17T23:01:13.628Z,101397.25
2023-03-17T23:03:45.175Z,101392.34
2023-03-17T23:06:14.708Z,101409.50
2023-03-17T23:08:47.242Z,101418.88
2023-03-17T23:11:18.885Z,101400.81
2023-03-17T23:13:48.838Z,101375.47
2023-03-17T23:16:19.014Z,101382.06
2023-03-17T23:18:53.029Z,101383.16
2023-03-17T23:21:24.990Z,101416.38
2023-03-17T23:23:53.914Z,101364.28
2023-03-17T23:26:23.122Z,101393.34
2023-03-17T23:28:52.325Z,101433.66
2023-03-17T23:31:22.577Z,101406.59
2023-03-17T23:33:53.220Z,101424.38
2023-03-17T23:36:22.546Z,101407.50
2023-03-17T23:38:52.485Z,101420.25
2023-03-17T23:41:21.669Z,101419.56
2023-03-17T23:43:51.082Z,101428.66
2023-03-17T23:46:20.940Z,101420.59
2023-03-17T23:48:50.547Z,101370.16
2023-03-17T23:51:20.840Z,101425.59
2023-03-17T23:53:52.080Z,101402.66
2023-03-17T23:56:21.218Z,101318.72
2023-03-17T23:58:50.253Z,101427.09
